sensor_id;sensor_type;location;lat;lon;timestamp;pressure;altitude;pressure_sealevel;temperature;humidity
21879;BME280;27908;42.708;23.278;2023-03-15T00:00:41;62956.94;;;4.85;71.63
21879;BME280;27908;42.708;23.278;2023-03-15T00:03:07;62935.09;;;4.76;71.43
21879;BME280;27908;42.708;23.278;2023-03-15T00:05:32;62947.31;;;4.83;72.19
21879;BME280;27908;42.708;23.278;2023-03-15T00:07:58;62949.81;;;4.81;72.49
21879;BME280;27908;42.708;23.278;2023-03-15T00:10:23;62947.31;;;4.83;72.23
21879;BME280;27908;42.708;23.278;2023-03-15T00:12:49;62971.44;;;4.75;73.34
21879;BME280;27908;42.708;23.278;2023-03-15T00:15:15;62944.38;;;4.90;73.14
21879;BME280;27908;42.708;23.278;2023-03-15T00:17:40;62936.59;;;4.73;74.15
21879;BME280;27908;42.708;23.278;2023-03-15T00:20:06;62934.88;;;4.57;74.20
21879;BME280;27908;42.708;23.278;2023-03-15T00:22:32;62945.03;;;4.64;74.62
21879;BME280;27908;42.708;23.278;2023-03-15T00:24:57;62851.03;;;4.49;75.83
21879;BME280;27908;42.708;23.278;2023-03-15T00:27:23;62925.41;;;4.67;75.53
21879;BME280;27908;42.708;23.278;2023-03-15T00:29:48;62933.06;;;4.74;75.92
21879;BME280;27908;42.708;23.278;2023-03-15T00:32:14;62890.09;;;4.67;75.28
21879;BME280;27908;42.708;23.278;2023-03-15T00:34:39;62954.78;;;4.76;74.75
21879;BME280;27908;42.708;23.278;2023-03-15T00:37:04;62936.16;;;4.80;75.25
21879;BME280;27908;42.708;23.278;2023-03-15T00:39:30;62915.47;;;4.79;75.79
21879;BME280;27908;42.708;23.278;2023-03-15T00:41:55;62951.84;;;4.83;76.42
21879;BME280;27908;42.708;23.278;2023-03-15T00:44:22;62925.63;;;4.84;76.27
21879;BME280;27908;42.708;23.278;2023-03-15T00:46:49;62967.09;;;4.93;75.95
21879;BME280;27908;42.708;23.278;2023-03-15T00:49:14;62957.00;;;4.93;76.19
21879;BME280;27908;42.708;23.278;2023-03-15T00:51:40;62930.53;;;4.74;76.24
21879;BME280;27908;42.708;23.278;2023-03-15T00:54:05;62959.09;;;4.97;76.25
21879;BME280;27908;42.708;23.278;2023-03-15T00:56:31;62978.88;;;5.06;77.65
21879;BME280;27908;42.708;23.278;2023-03-15T00:58:57;63005.22;;;5.12;76.75
21879;BME280;27908;42.708;23.278;2023-03-15T01:01:25;62951.25;;;5.16;76.32
21879;BME280;27908;42.708;23.278;2023-03-15T01:03:51;62967.94;;;5.20;75.86
21879;BME280;27908;42.708;23.278;2023-03-15T01:06:20;62993.34;;;5.32;75.78
21879;BME280;27908;42.708;23.278;2023-03-15T01:08:46;63034.38;;;5.43;76.34
21879;BME280;27908;42.708;23.278;2023-03-15T01:11:14;63018.28;;;5.47;76.00
21879;BME280;27908;42.708;23.278;2023-03-15T01:13:40;63006.00;;;5.35;76.38
21879;BME280;27908;42.708;23.278;2023-03-15T01:16:08;62972.69;;;5.37;75.35
21879;BME280;27908;42.708;23.278;2023-03-15T01:18:34;63019.59;;;5.31;76.26
21879;BME280;27908;42.708;23.278;2023-03-15T01:21:01;62995.75;;;5.23;77.31
21879;BME280;27908;42.708;23.278;2023-03-15T01:23:27;63006.97;;;5.31;77.07
21879;BME280;27908;42.708;23.278;2023-03-15T01:25:52;63012.09;;;5.38;76.99
21879;BME280;27908;42.708;23.278;2023-03-15T01:28:17;62989.41;;;5.41;76.80
21879;BME280;27908;42.708;23.278;2023-03-15T01:30:52;62998.44;;;5.35;75.64
21879;BME280;27908;42.708;23.278;2023-03-15T01:33:18;63057.69;;;5.46;75.31
21879;BME280;27908;42.708;23.278;2023-03-15T01:35:44;62981.28;;;5.38;77.72
21879;BME280;27908;42.708;23.278;2023-03-15T01:38:10;63034.03;;;5.55;76.99
21879;BME280;27908;42.708;23.278;2023-03-15T01:40:42;63040.66;;;5.61;76.84
21879;BME280;27908;42.708;23.278;2023-03-15T01:43:17;63049.78;;;5.60;77.76
21879;BME280;27908;42.708;23.278;2023-03-15T01:48:39;63021.03;;;5.25;81.01
21879;BME280;27908;42.708;23.278;2023-03-15T01:56:44;63012.00;;;5.29;78.22
21879;BME280;27908;42.708;23.278;2023-03-15T01:59:15;62942.59;;;5.10;82.38
21879;BME280;27908;42.708;23.278;2023-03-15T02:01:42;62974.72;;;4.95;82.24
21879;BME280;27908;42.708;23.278;2023-03-15T02:04:14;62975.28;;;5.00;82.39
21879;BME280;27908;42.708;23.278;2023-03-15T02:06:41;62954.47;;;4.90;81.11
21879;BME280;27908;42.708;23.278;2023-03-15T02:09:13;62985.44;;;5.03;82.20
21879;BME280;27908;42.708;23.278;2023-03-15T02:11:40;62978.28;;;4.98;81.76
21879;BME280;27908;42.708;23.278;2023-03-15T02:14:07;62911.13;;;4.97;82.47
21879;BME280;27908;42.708;23.278;2023-03-15T02:16:34;62954.91;;;4.86;81.96
21879;BME280;27908;42.708;23.278;2023-03-15T02:18:59;62929.31;;;4.97;81.29
21879;BME280;27908;42.708;23.278;2023-03-15T02:24:08;62919.50;;;4.78;81.78
21879;BME280;27908;42.708;23.278;2023-03-15T02:26:49;62933.94;;;4.63;82.99
21879;BME280;27908;42.708;23.278;2023-03-15T02:29:16;62929.47;;;4.68;82.99
21879;BME280;27908;42.708;23.278;2023-03-15T02:31:42;62914.38;;;4.71;83.77
21879;BME280;27908;42.708;23.278;2023-03-15T02:34:08;62998.00;;;4.61;82.58
21879;BME280;27908;42.708;23.278;2023-03-15T02:36:35;62927.38;;;4.64;84.36
21879;BME280;27908;42.708;23.278;2023-03-15T02:39:11;62942.03;;;4.66;84.18
21879;BME280;27908;42.708;23.278;2023-03-15T02:41:39;62920.91;;;4.70;83.96
21879;BME280;27908;42.708;23.278;2023-03-15T02:44:33;62928.31;;;4.58;84.44
21879;BME280;27908;42.708;23.278;2023-03-15T02:47:06;62917.25;;;4.59;83.79
21879;BME280;27908;42.708;23.278;2023-03-15T02:49:39;62958.56;;;4.55;84.11
21879;BME280;27908;42.708;23.278;2023-03-15T02:52:05;62909.59;;;4.52;84.71
21879;BME280;27908;42.708;23.278;2023-03-15T02:54:31;62908.16;;;4.19;85.67
21879;BME280;27908;42.708;23.278;2023-03-15T02:56:59;62857.50;;;3.99;88.35
21879;BME280;27908;42.708;23.278;2023-03-15T02:59:25;62874.72;;;4.06;89.40
21879;BME280;27908;42.708;23.278;2023-03-15T03:01:51;62842.47;;;4.06;87.88
21879;BME280;27908;42.708;23.278;2023-03-15T03:04:16;62856.03;;;4.02;88.04
21879;BME280;27908;42.708;23.278;2023-03-15T03:06:42;62874.88;;;4.18;88.49
21879;BME280;27908;42.708;23.278;2023-03-15T03:09:09;62906.31;;;3.95;89.96
21879;BME280;27908;42.708;23.278;2023-03-15T03:11:35;62879.88;;;4.16;88.77
21879;BME280;27908;42.708;23.278;2023-03-15T03:14:00;62858.06;;;4.04;89.21
21879;BME280;27908;42.708;23.278;2023-03-15T03:16:25;62837.03;;;4.16;90.05
21879;BME280;27908;42.708;23.278;2023-03-15T03:18:51;62866.22;;;4.12;90.08
21879;BME280;27908;42.708;23.278;2023-03-15T03:21:16;62869.97;;;3.89;89.48
21879;BME280;27908;42.708;23.278;2023-03-15T03:23:42;62869.81;;;3.79;92.58
21879;BME280;27908;42.708;23.278;2023-03-15T03:26:15;62823.09;;;3.88;91.18
21879;BME280;27908;42.708;23.278;2023-03-15T03:28:43;62856.88;;;3.91;91.40
21879;BME280;27908;42.708;23.278;2023-03-15T03:31:16;62807.41;;;3.82;93.72
21879;BME280;27908;42.708;23.278;2023-03-15T03:33:42;62773.28;;;3.52;93.78
21879;BME280;27908;42.708;23.278;2023-03-15T03:36:07;62832.25;;;3.55;95.50
21879;BME280;27908;42.708;23.278;2023-03-15T03:38:33;62823.88;;;3.71;96.42
21879;BME280;27908;42.708;23.278;2023-03-15T03:40:58;62802.22;;;3.72;95.74
21879;BME280;27908;42.708;23.278;2023-03-15T03:43:23;62800.84;;;3.42;95.94
21879;BME280;27908;42.708;23.278;2023-03-15T03:45:49;62808.81;;;3.74;93.47
21879;BME280;27908;42.708;23.278;2023-03-15T03:48:14;62799.34;;;3.82;91.89
21879;BME280;27908;42.708;23.278;2023-03-15T03:50:40;62839.09;;;3.79;90.95
21879;BME280;27908;42.708;23.278;2023-03-15T03:53:05;62814.38;;;3.77;91.44
21879;BME280;27908;42.708;23.278;2023-03-15T03:55:30;62849.16;;;3.79;91.62
21879;BME280;27908;42.708;23.278;2023-03-15T03:57:58;62775.50;;;3.71;90.67
21879;BME280;27908;42.708;23.278;2023-03-15T04:00:23;62855.47;;;3.99;89.25
21879;BME280;27908;42.708;23.278;2023-03-15T04:02:49;62850.06;;;4.09;88.48
21879;BME280;27908;42.708;23.278;2023-03-15T04:05:18;62895.56;;;4.19;87.83
21879;BME280;27908;42.708;23.278;2023-03-15T04:07:43;62832.41;;;4.09;87.02
21879;BME280;27908;42.708;23.278;2023-03-15T04:10:10;62882.50;;;4.23;86.81
21879;BME280;27908;42.708;23.278;2023-03-15T04:12:43;62859.06;;;4.05;87.38
21879;BME280;27908;42.708;23.278;2023-03-15T04:15:09;62840.63;;;4.22;87.07
21879;BME280;27908;42.708;23.278;2023-03-15T04:17:38;62838.50;;;4.12;88.13
21879;BME280;27908;42.708;23.278;2023-03-15T04:20:05;62900.09;;;4.18;87.55
21879;BME280;27908;42.708;23.278;2023-03-15T04:22:36;62894.66;;;4.27;87.23
21879;BME280;27908;42.708;23.278;2023-03-15T04:25:01;62859.44;;;4.32;87.55
21879;BME280;27908;42.708;23.278;2023-03-15T04:27:28;62921.97;;;4.34;87.18
21879;BME280;27908;42.708;23.278;2023-03-15T04:29:54;62900.88;;;4.41;87.66
21879;BME280;27908;42.708;23.278;2023-03-15T04:32:19;62895.84;;;4.41;85.88
21879;BME280;27908;42.708;23.278;2023-03-15T04:34:45;62877.13;;;4.37;88.52
21879;BME280;27908;42.708;23.278;2023-03-15T04:37:18;62894.28;;;4.37;86.84
21879;BME280;27908;42.708;23.278;2023-03-15T04:39:43;62914.47;;;4.39;86.52
21879;BME280;27908;42.708;23.278;2023-03-15T04:42:09;62885.25;;;4.40;85.06
21879;BME280;27908;42.708;23.278;2023-03-15T04:44:35;62885.19;;;4.38;85.51
21879;BME280;27908;42.708;23.278;2023-03-15T04:47:00;62925.66;;;4.48;86.22
21879;BME280;27908;42.708;23.278;2023-03-15T04:49:26;62925.72;;;4.50;85.41
21879;BME280;27908;42.708;23.278;2023-03-15T04:51:51;62904.97;;;4.45;85.90
21879;BME280;27908;42.708;23.278;2023-03-15T04:54:17;62889.81;;;4.42;86.37
21879;BME280;27908;42.708;23.278;2023-03-15T04:56:42;62959.06;;;4.56;86.51
21879;BME280;27908;42.708;23.278;2023-03-15T04:59:08;62927.38;;;4.61;87.69
21879;BME280;27908;42.708;23.278;2023-03-15T05:01:35;62903.22;;;4.67;87.45
21879;BME280;27908;42.708;23.278;2023-03-15T05:04:00;62928.13;;;4.40;88.00
21879;BME280;27908;42.708;23.278;2023-03-15T05:06:26;62902.13;;;4.61;88.38
21879;BME280;27908;42.708;23.278;2023-03-15T05:08:52;62855.28;;;4.23;89.20
21879;BME280;27908;42.708;23.278;2023-03-15T05:11:18;62926.25;;;4.53;89.72
21879;BME280;27908;42.708;23.278;2023-03-15T05:13:44;62935.47;;;4.64;89.89
21879;BME280;27908;42.708;23.278;2023-03-15T05:16:09;62905.28;;;4.72;89.92
21879;BME280;27908;42.708;23.278;2023-03-15T05:18:34;62927.50;;;4.74;89.65
21879;BME280;27908;42.708;23.278;2023-03-15T05:21:00;62930.06;;;4.76;90.73
21879;BME280;27908;42.708;23.278;2023-03-15T05:23:25;62968.50;;;4.82;90.35
21879;BME280;27908;42.708;23.278;2023-03-15T05:25:52;62944.38;;;4.93;89.17
21879;BME280;27908;42.708;23.278;2023-03-15T05:28:19;62931.88;;;5.02;87.99
21879;BME280;27908;42.708;23.278;2023-03-15T05:30:44;62953.66;;;5.06;87.93
21879;BME280;27908;42.708;23.278;2023-03-15T05:33:10;62958.84;;;5.19;87.24
21879;BME280;27908;42.708;23.278;2023-03-15T05:35:35;62962.44;;;5.25;86.96
21879;BME280;27908;42.708;23.278;2023-03-15T05:38:01;63020.59;;;5.30;86.85
21879;BME280;27908;42.708;23.278;2023-03-15T05:40:27;62980.16;;;5.27;88.65
21879;BME280;27908;42.708;23.278;2023-03-15T05:42:55;63008.25;;;5.13;87.77
21879;BME280;27908;42.708;23.278;2023-03-15T05:45:21;62974.19;;;5.33;87.46
21879;BME280;27908;42.708;23.278;2023-03-15T05:47:46;63011.78;;;5.55;87.93
21879;BME280;27908;42.708;23.278;2023-03-15T05:50:12;63008.22;;;5.52;85.42
21879;BME280;27908;42.708;23.278;2023-03-15T05:52:37;63024.09;;;5.69;80.57
21879;BME280;27908;42.708;23.278;2023-03-15T05:55:03;63014.03;;;5.72;78.19
21879;BME280;27908;42.708;23.278;2023-03-15T05:57:29;63029.03;;;5.60;83.01
21879;BME280;27908;42.708;23.278;2023-03-15T05:59:54;63044.88;;;5.72;80.01
21879;BME280;27908;42.708;23.278;2023-03-15T06:02:19;63055.03;;;5.77;78.14
21879;BME280;27908;42.708;23.278;2023-03-15T06:04:45;63041.03;;;5.88;69.97
21879;BME280;27908;42.708;23.278;2023-03-15T06:07:11;63067.69;;;5.77;67.21
21879;BME280;27908;42.708;23.278;2023-03-15T06:09:36;63124.78;;;6.15;64.13
21879;BME280;27908;42.708;23.278;2023-03-15T06:12:02;63112.75;;;6.26;62.29
21879;BME280;27908;42.708;23.278;2023-03-15T06:14:27;63175.03;;;6.30;61.05
21879;BME280;27908;42.708;23.278;2023-03-15T06:16:53;63131.75;;;6.49;61.46
21879;BME280;27908;42.708;23.278;2023-03-15T06:19:19;63143.03;;;6.62;61.80
21879;BME280;27908;42.708;23.278;2023-03-15T06:21:45;63181.13;;;6.74;60.50
21879;BME280;27908;42.708;23.278;2023-03-15T06:24:11;63172.78;;;6.96;60.73
21879;BME280;27908;42.708;23.278;2023-03-15T06:26:36;63164.78;;;7.07;59.83
21879;BME280;27908;42.708;23.278;2023-03-15T06:29:01;63226.19;;;7.15;58.80
21879;BME280;27908;42.708;23.278;2023-03-15T06:31:27;63234.31;;;7.16;58.71
21879;BME280;27908;42.708;23.278;2023-03-15T06:33:52;63195.81;;;7.18;57.66
21879;BME280;27908;42.708;23.278;2023-03-15T06:36:18;63237.38;;;7.19;58.08
21879;BME280;27908;42.708;23.278;2023-03-15T06:38:43;63206.66;;;7.38;59.55
21879;BME280;27908;42.708;23.278;2023-03-15T06:41:09;63232.56;;;7.43;57.65
21879;BME280;27908;42.708;23.278;2023-03-15T06:43:36;63251.38;;;7.49;57.26
21879;BME280;27908;42.708;23.278;2023-03-15T06:46:02;63260.72;;;7.68;56.86
21879;BME280;27908;42.708;23.278;2023-03-15T06:48:27;63273.38;;;7.66;56.92
21879;BME280;27908;42.708;23.278;2023-03-15T06:50:53;63274.81;;;7.60;56.56
21879;BME280;27908;42.708;23.278;2023-03-15T06:53:19;63341.63;;;7.48;56.67
21879;BME280;27908;42.708;23.278;2023-03-15T06:55:46;63279.44;;;7.64;56.42
21879;BME280;27908;42.708;23.278;2023-03-15T06:58:12;63253.50;;;7.56;56.31
21879;BME280;27908;42.708;23.278;2023-03-15T07:00:38;63311.69;;;7.90;56.24
21879;BME280;27908;42.708;23.278;2023-03-15T07:03:04;63303.69;;;8.02;55.50
21879;BME280;27908;42.708;23.278;2023-03-15T07:05:29;63336.81;;;8.12;55.65
21879;BME280;27908;42.708;23.278;2023-03-15T07:07:55;63331.28;;;8.19;56.93
21879;BME280;27908;42.708;23.278;2023-03-15T07:10:21;63361.91;;;8.34;54.37
21879;BME280;27908;42.708;23.278;2023-03-15T07:12:46;63403.66;;;8.45;54.83
21879;BME280;27908;42.708;23.278;2023-03-15T07:15:12;63334.09;;;8.44;53.69
21879;BME280;27908;42.708;23.278;2023-03-15T07:17:37;63367.66;;;8.49;54.79
21879;BME280;27908;42.708;23.278;2023-03-15T07:20:03;63414.66;;;8.75;54.79
21879;BME280;27908;42.708;23.278;2023-03-15T07:22:33;63403.88;;;8.64;53.51
21879;BME280;27908;42.708;23.278;2023-03-15T07:24:59;63386.59;;;8.62;52.91
21879;BME280;27908;42.708;23.278;2023-03-15T07:27:24;63461.50;;;8.86;54.31
21879;BME280;27908;42.708;23.278;2023-03-15T07:29:50;63426.50;;;8.88;52.76
21879;BME280;27908;42.708;23.278;2023-03-15T07:32:15;63442.38;;;9.01;53.75
21879;BME280;27908;42.708;23.278;2023-03-15T07:34:41;63492.81;;;9.11;53.58
21879;BME280;27908;42.708;23.278;2023-03-15T07:37:06;63511.72;;;9.19;53.63
21879;BME280;27908;42.708;23.278;2023-03-15T07:39:32;63445.88;;;8.97;51.63
21879;BME280;27908;42.708;23.278;2023-03-15T07:41:58;63430.06;;;8.89;52.86
21879;BME280;27908;42.708;23.278;2023-03-15T07:44:24;63452.94;;;8.92;52.15
21879;BME280;27908;42.708;23.278;2023-03-15T07:46:50;63419.97;;;8.97;52.87
21879;BME280;27908;42.708;23.278;2023-03-15T07:49:15;63430.72;;;9.05;52.35
21879;BME280;27908;42.708;23.278;2023-03-15T07:51:41;63460.16;;;9.01;52.69
21879;BME280;27908;42.708;23.278;2023-03-15T07:54:07;63444.56;;;9.18;52.41
21879;BME280;27908;42.708;23.278;2023-03-15T07:56:33;63465.44;;;9.19;51.71
21879;BME280;27908;42.708;23.278;2023-03-15T07:58:58;63487.47;;;9.35;51.64
21879;BME280;27908;42.708;23.278;2023-03-15T08:01:24;63510.31;;;9.32;51.59
21879;BME280;27908;42.708;23.278;2023-03-15T08:03:49;63524.28;;;9.53;52.63
21879;BME280;27908;42.708;23.278;2023-03-15T08:06:15;63645.91;;;9.57;53.69
21879;BME280;27908;42.708;23.278;2023-03-15T08:08:40;63548.38;;;9.71;51.48
21879;BME280;27908;42.708;23.278;2023-03-15T08:11:05;63555.09;;;9.80;50.66
21879;BME280;27908;42.708;23.278;2023-03-15T08:13:31;63517.16;;;9.54;51.24
21879;BME280;27908;42.708;23.278;2023-03-15T08:15:57;63548.72;;;9.57;51.60
21879;BME280;27908;42.708;23.278;2023-03-15T08:18:22;63546.13;;;9.52;51.71
21879;BME280;27908;42.708;23.278;2023-03-15T08:20:47;63533.81;;;9.43;50.27
21879;BME280;27908;42.708;23.278;2023-03-15T08:23:13;63532.09;;;9.70;51.24
21879;BME280;27908;42.708;23.278;2023-03-15T08:25:42;63583.81;;;9.98;50.76
21879;BME280;27908;42.708;23.278;2023-03-15T08:28:08;63606.41;;;10.17;51.69
21879;BME280;27908;42.708;23.278;2023-03-15T08:30:34;63678.06;;;10.49;50.03
21879;BME280;27908;42.708;23.278;2023-03-15T08:33:00;63691.91;;;10.58;49.09
21879;BME280;27908;42.708;23.278;2023-03-15T08:35:25;63732.38;;;10.77;49.75
21879;BME280;27908;42.708;23.278;2023-03-15T08:37:51;63681.06;;;10.94;50.32
21879;BME280;27908;42.708;23.278;2023-03-15T08:40:19;63721.97;;;11.06;50.32
21879;BME280;27908;42.708;23.278;2023-03-15T08:42:48;63735.88;;;11.19;50.57
21879;BME280;27908;42.708;23.278;2023-03-15T08:45:13;63738.53;;;11.29;49.73
21879;BME280;27908;42.708;23.278;2023-03-15T08:47:40;63747.22;;;11.33;48.15
21879;BME280;27908;42.708;23.278;2023-03-15T08:50:11;63766.31;;;11.51;48.69
21879;BME280;27908;42.708;23.278;2023-03-15T08:52:38;63819.94;;;11.53;48.34
21879;BME280;27908;42.708;23.278;2023-03-15T08:55:04;63794.91;;;11.51;47.60
21879;BME280;27908;42.708;23.278;2023-03-15T08:57:30;63823.47;;;11.49;47.70
21879;BME280;27908;42.708;23.278;2023-03-15T09:00:00;63777.94;;;11.40;48.29
21879;BME280;27908;42.708;23.278;2023-03-15T09:02:26;63789.16;;;11.41;48.42
21879;BME280;27908;42.708;23.278;2023-03-15T09:04:52;63760.63;;;11.45;48.70
21879;BME280;27908;42.708;23.278;2023-03-15T09:07:18;63750.28;;;11.31;48.42
21879;BME280;27908;42.708;23.278;2023-03-15T09:09:43;63810.28;;;11.59;49.36
21879;BME280;27908;42.708;23.278;2023-03-15T09:12:13;63843.25;;;11.88;49.21
21879;BME280;27908;42.708;23.278;2023-03-15T09:14:39;63860.81;;;12.07;48.52
21879;BME280;27908;42.708;23.278;2023-03-15T09:17:05;63873.75;;;12.22;48.20
21879;BME280;27908;42.708;23.278;2023-03-15T09:19:30;63869.63;;;12.18;47.07
21879;BME280;27908;42.708;23.278;2023-03-15T09:21:56;63879.69;;;12.03;47.19
21879;BME280;27908;42.708;23.278;2023-03-15T09:24:22;63880.19;;;12.04;48.59
21879;BME280;27908;42.708;23.278;2023-03-15T09:26:47;63943.72;;;12.18;48.67
21879;BME280;27908;42.708;23.278;2023-03-15T09:29:15;63834.13;;;11.94;48.07
21879;BME280;27908;42.708;23.278;2023-03-15T09:31:42;63874.03;;;12.00;48.91
21879;BME280;27908;42.708;23.278;2023-03-15T09:34:07;63904.91;;;12.22;48.98
21879;BME280;27908;42.708;23.278;2023-03-15T09:36:33;63848.66;;;12.15;48.28
21879;BME280;27908;42.708;23.278;2023-03-15T09:38:59;63893.84;;;12.39;48.48
21879;BME280;27908;42.708;23.278;2023-03-15T09:41:46;63975.00;;;12.77;47.06
21879;BME280;27908;42.708;23.278;2023-03-15T09:44:42;63956.63;;;12.79;45.85
21879;BME280;27908;42.708;23.278;2023-03-15T09:47:30;63972.19;;;13.01;46.86
21879;BME280;27908;42.708;23.278;2023-03-15T09:55:34;64081.88;;;13.18;46.57
21879;BME280;27908;42.708;23.278;2023-03-15T09:58:02;64022.59;;;13.27;46.83
21879;BME280;27908;42.708;23.278;2023-03-15T10:00:40;64043.06;;;13.25;45.34
21879;BME280;27908;42.708;23.278;2023-03-15T10:05:46;64005.94;;;12.99;46.07
21879;BME280;27908;42.708;23.278;2023-03-15T10:08:17;63973.06;;;12.85;46.31
21879;BME280;27908;42.708;23.278;2023-03-15T10:16:36;63936.03;;;12.69;46.33
21879;BME280;27908;42.708;23.278;2023-03-15T10:24:04;64043.94;;;13.11;45.91
21879;BME280;27908;42.708;23.278;2023-03-15T10:26:36;64076.03;;;13.47;47.68
21879;BME280;27908;42.708;23.278;2023-03-15T10:29:12;64122.50;;;13.84;45.00
21879;BME280;27908;42.708;23.278;2023-03-15T10:31:40;64155.34;;;13.88;45.11
21879;BME280;27908;42.708;23.278;2023-03-15T10:34:08;64196.09;;;14.12;45.16
21879;BME280;27908;42.708;23.278;2023-03-15T10:36:35;64126.09;;;13.85;45.02
21879;BME280;27908;42.708;23.278;2023-03-15T10:39:01;64182.00;;;13.89;46.66
21879;BME280;27908;42.708;23.278;2023-03-15T10:41:29;64149.19;;;13.87;44.85
21879;BME280;27908;42.708;23.278;2023-03-15T10:44:03;64113.03;;;13.60;44.39
21879;BME280;27908;42.708;23.278;2023-03-15T10:46:29;64075.47;;;13.41;45.43
21879;BME280;27908;42.708;23.278;2023-03-15T10:48:57;64074.97;;;13.41;45.33
21879;BME280;27908;42.708;23.278;2023-03-15T10:51:29;64060.94;;;13.22;46.58
21879;BME280;27908;42.708;23.278;2023-03-15T10:54:00;64053.28;;;13.22;47.33
21879;BME280;27908;42.708;23.278;2023-03-15T10:56:29;64039.00;;;13.31;46.05
21879;BME280;27908;42.708;23.278;2023-03-15T10:58:57;64027.09;;;13.15;45.95
21879;BME280;27908;42.708;23.278;2023-03-15T11:04:21;64065.09;;;13.26;46.25
21879;BME280;27908;42.708;23.278;2023-03-15T11:09:22;64015.84;;;13.16;46.86
21879;BME280;27908;42.708;23.278;2023-03-15T11:11:53;64079.88;;;13.23;46.35
21879;BME280;27908;42.708;23.278;2023-03-15T11:14:20;64017.34;;;13.15;46.99
21879;BME280;27908;42.708;23.278;2023-03-15T11:16:49;63991.91;;;12.79;46.38
21879;BME280;27908;42.708;23.278;2023-03-15T11:19:17;64052.69;;;13.15;46.53
21879;BME280;27908;42.708;23.278;2023-03-15T11:21:44;64007.59;;;13.11;46.28
21879;BME280;27908;42.708;23.278;2023-03-15T11:24:21;64006.22;;;13.26;46.45
21879;BME280;27908;42.708;23.278;2023-03-15T11:26:48;64062.19;;;13.43;45.84
21879;BME280;27908;42.708;23.278;2023-03-15T11:31:46;64014.78;;;13.13;46.35
21879;BME280;27908;42.708;23.278;2023-03-15T11:36:43;64015.81;;;13.14;46.25
21879;BME280;27908;42.708;23.278;2023-03-15T11:39:12;64039.19;;;12.99;47.06
21879;BME280;27908;42.708;23.278;2023-03-15T11:41:45;63932.59;;;12.29;51.09
21879;BME280;27908;42.708;23.278;2023-03-15T11:46:53;63844.84;;;11.92;53.76
21879;BME280;27908;42.708;23.278;2023-03-15T11:49:53;63826.91;;;11.87;56.55
21879;BME280;27908;42.708;23.278;2023-03-15T11:52:21;63837.19;;;11.94;56.52
21879;BME280;27908;42.708;23.278;2023-03-15T11:54:48;63824.66;;;11.68;57.71
21879;BME280;27908;42.708;23.278;2023-03-15T12:03:29;63718.06;;;11.24;61.45
21879;BME280;27908;42.708;23.278;2023-03-15T12:11:01;63792.59;;;11.27;61.53
21879;BME280;27908;42.708;23.278;2023-03-15T12:13:34;63809.69;;;11.51;60.63
21879;BME280;27908;42.708;23.278;2023-03-15T12:15:59;63776.53;;;11.51;60.82
21879;BME280;27908;42.708;23.278;2023-03-15T12:18:51;63799.50;;;11.51;60.10
21879;BME280;27908;42.708;23.278;2023-03-15T12:21:22;63767.56;;;11.25;60.46
21879;BME280;27908;42.708;23.278;2023-03-15T12:24:03;63790.94;;;11.16;60.74
21879;BME280;27908;42.708;23.278;2023-03-15T12:26:41;63779.38;;;11.32;60.74
21879;BME280;27908;42.708;23.278;2023-03-15T12:29:14;63779.31;;;11.27;62.12
21879;BME280;27908;42.708;23.278;2023-03-15T12:31:53;63761.47;;;11.29;60.90
21879;BME280;27908;42.708;23.278;2023-03-15T12:34:24;63759.88;;;11.20;61.30
21879;BME280;27908;42.708;23.278;2023-03-15T12:36:52;63727.69;;;11.16;62.13
21879;BME280;27908;42.708;23.278;2023-03-15T12:42:10;63810.09;;;11.41;61.91
21879;BME280;27908;42.708;23.278;2023-03-15T12:44:39;63809.69;;;11.48;59.83
21879;BME280;27908;42.708;23.278;2023-03-15T12:47:07;63764.03;;;11.29;58.80
21879;BME280;27908;42.708;23.278;2023-03-15T12:49:41;63789.72;;;11.44;58.60
21879;BME280;27908;42.708;23.278;2023-03-15T12:54:48;63762.03;;;11.32;57.54
21879;BME280;27908;42.708;23.278;2023-03-15T12:57:23;63737.88;;;11.16;55.40
21879;BME280;27908;42.708;23.278;2023-03-15T13:00:04;63703.63;;;11.08;56.45
21879;BME280;27908;42.708;23.278;2023-03-15T13:03:06;63763.47;;;11.24;56.65
21879;BME280;27908;42.708;23.278;2023-03-15T13:08:29;63740.41;;;11.14;55.96
21879;BME280;27908;42.708;23.278;2023-03-15T13:21:30;63812.63;;;11.41;54.70
21879;BME280;27908;42.708;23.278;2023-03-15T13:23:58;63823.53;;;11.54;54.57
21879;BME280;27908;42.708;23.278;2023-03-15T13:29:11;63866.31;;;11.93;54.36
21879;BME280;27908;42.708;23.278;2023-03-15T13:31:39;63845.78;;;11.85;53.85
21879;BME280;27908;42.708;23.278;2023-03-15T13:34:34;63819.34;;;11.97;53.53
21879;BME280;27908;42.708;23.278;2023-03-15T13:37:00;63825.91;;;11.88;54.52
21879;BME280;27908;42.708;23.278;2023-03-15T13:39:31;63859.97;;;11.72;53.84
21879;BME280;27908;42.708;23.278;2023-03-15T13:41:59;63821.59;;;11.67;55.54
21879;BME280;27908;42.708;23.278;2023-03-15T13:44:25;63797.13;;;11.68;55.23
21879;BME280;27908;42.708;23.278;2023-03-15T13:46:52;63828.78;;;11.69;55.90
21879;BME280;27908;42.708;23.278;2023-03-15T13:49:18;63849.56;;;11.57;55.48
21879;BME280;27908;42.708;23.278;2023-03-15T13:51:45;63826.31;;;11.76;55.33
21879;BME280;27908;42.708;23.278;2023-03-15T13:54:23;63798.25;;;11.79;55.57
21879;BME280;27908;42.708;23.278;2023-03-15T13:59:36;63789.78;;;11.51;58.00
21879;BME280;27908;42.708;23.278;2023-03-15T14:02:04;63815.38;;;11.56;57.37
21879;BME280;27908;42.708;23.278;2023-03-15T14:04:34;63836.78;;;11.52;59.11
21879;BME280;27908;42.708;23.278;2023-03-15T14:07:08;63762.56;;;11.35;60.33
21879;BME280;27908;42.708;23.278;2023-03-15T14:09:40;63763.53;;;11.29;60.89
21879;BME280;27908;42.708;23.278;2023-03-15T14:12:17;63749.69;;;11.23;61.87
21879;BME280;27908;42.708;23.278;2023-03-15T14:14:51;63717.22;;;10.89;62.71
21879;BME280;27908;42.708;23.278;2023-03-15T14:17:28;63693.13;;;10.78;63.65
21879;BME280;27908;42.708;23.278;2023-03-15T14:19:55;63688.88;;;10.60;65.36